sensor_id;sensor_type;location;lat;lon;timestamp;P1;durP1;ratioP1;P2;durP2;ratioP2
40601;SDS011;26310;50.278;19.032;2022-07-30T00:02:24;3.47;;;2.55;;
40601;SDS011;26310;50.278;19.032;2022-07-30T00:07:27;2.92;;;2.63;;
40601;SDS011;26310;50.278;19.032;2022-07-30T00:12:30;2.55;;;2.33;;
40601;SDS011;26310;50.278;19.032;2022-07-30T00:17:32;4.05;;;3.00;;
40601;SDS011;26310;50.278;19.032;2022-07-30T00:22:35;5.07;;;3.58;;
40601;SDS011;26310;50.278;19.032;2022-07-30T00:27:38;4.53;;;3.10;;
40601;SDS011;26310;50.278;19.032;2022-07-30T00:32:41;3.75;;;2.67;;
40601;SDS011;26310;50.278;19.032;2022-07-30T00:37:43;3.85;;;3.00;;
40601;SDS011;26310;50.278;19.032;2022-07-30T00:42:46;4.90;;;3.10;;
40601;SDS011;26310;50.278;19.032;2022-07-30T00:47:49;3.17;;;2.88;;
40601;SDS011;26310;50.278;19.032;2022-07-30T00:52:52;5.53;;;3.10;;
40601;SDS011;26310;50.278;19.032;2022-07-30T00:57:55;3.70;;;2.80;;
40601;SDS011;26310;50.278;19.032;2022-07-30T01:02:58;3.72;;;3.03;;
40601;SDS011;26310;50.278;19.032;2022-07-30T01:08:00;5.30;;;3.28;;
40601;SDS011;26310;50.278;19.032;2022-07-30T01:13:03;4.95;;;3.22;;
40601;SDS011;26310;50.278;19.032;2022-07-30T01:18:07;3.78;;;3.10;;
40601;SDS011;26310;50.278;19.032;2022-07-30T01:28:17;7.78;;;3.60;;
40601;SDS011;26310;50.278;19.032;2022-07-30T01:33:22;4.93;;;3.08;;
40601;SDS011;26310;50.278;19.032;2022-07-30T01:38:26;3.85;;;3.30;;
40601;SDS011;26310;50.278;19.032;2022-07-30T01:43:35;5.07;;;3.33;;
40601;SDS011;26310;50.278;19.032;2022-07-30T01:48:38;4.45;;;3.50;;
40601;SDS011;26310;50.278;19.032;2022-07-30T01:53:42;4.03;;;2.97;;
40601;SDS011;26310;50.278;19.032;2022-07-30T01:58:45;5.20;;;3.35;;
40601;SDS011;26310;50.278;19.032;2022-07-30T02:03:49;4.88;;;3.20;;
40601;SDS011;26310;50.278;19.032;2022-07-30T02:08:54;4.63;;;3.85;;
40601;SDS011;26310;50.278;19.032;2022-07-30T02:13:58;4.43;;;3.30;;
40601;SDS011;26310;50.278;19.032;2022-07-30T02:19:03;7.50;;;3.70;;
40601;SDS011;26310;50.278;19.032;2022-07-30T02:24:13;3.97;;;3.10;;
40601;SDS011;26310;50.278;19.032;2022-07-30T02:29:18;4.88;;;3.97;;
40601;SDS011;26310;50.278;19.032;2022-07-30T02:34:22;3.50;;;3.10;;
40601;SDS011;26310;50.278;19.032;2022-07-30T02:39:25;4.05;;;3.38;;
40601;SDS011;26310;50.278;19.032;2022-07-30T02:44:31;6.13;;;3.53;;
40601;SDS011;26310;50.278;19.032;2022-07-30T02:49:34;3.95;;;3.55;;
40601;SDS011;26310;50.278;19.032;2022-07-30T02:54:38;4.75;;;3.35;;
40601;SDS011;26310;50.278;19.032;2022-07-30T02:59:41;6.00;;;3.40;;
40601;SDS011;26310;50.278;19.032;2022-07-30T03:04:45;4.03;;;3.42;;
40601;SDS011;26310;50.278;19.032;2022-07-30T03:09:50;6.20;;;3.60;;
40601;SDS011;26310;50.278;19.032;2022-07-30T03:14:56;4.20;;;3.28;;
40601;SDS011;26310;50.278;19.032;2022-07-30T03:19:59;5.40;;;3.78;;
40601;SDS011;26310;50.278;19.032;2022-07-30T03:25:02;5.25;;;3.85;;
40601;SDS011;26310;50.278;19.032;2022-07-30T03:30:06;6.47;;;3.83;;
40601;SDS011;26310;50.278;19.032;2022-07-30T03:35:10;5.95;;;3.78;;
40601;SDS011;26310;50.278;19.032;2022-07-30T03:40:18;5.20;;;3.80;;
40601;SDS011;26310;50.278;19.032;2022-07-30T03:45:21;4.20;;;3.70;;
40601;SDS011;26310;50.278;19.032;2022-07-30T03:50:24;6.70;;;4.20;;
40601;SDS011;26310;50.278;19.032;2022-07-30T03:55:27;6.10;;;4.00;;
40601;SDS011;26310;50.278;19.032;2022-07-30T04:00:30;6.15;;;3.40;;
40601;SDS011;26310;50.278;19.032;2022-07-30T04:05:33;5.43;;;3.95;;
40601;SDS011;26310;50.278;19.032;2022-07-30T04:10:42;4.90;;;3.70;;
40601;SDS011;26310;50.278;19.032;2022-07-30T04:21:20;5.47;;;4.03;;
40601;SDS011;26310;50.278;19.032;2022-07-30T04:26:24;5.07;;;4.57;;
40601;SDS011;26310;50.278;19.032;2022-07-30T04:31:27;5.50;;;4.88;;
40601;SDS011;26310;50.278;19.032;2022-07-30T04:36:31;5.88;;;4.80;;
40601;SDS011;26310;50.278;19.032;2022-07-30T04:41:34;5.88;;;4.68;;
40601;SDS011;26310;50.278;19.032;2022-07-30T04:46:50;8.63;;;4.88;;
40601;SDS011;26310;50.278;19.032;2022-07-30T04:51:53;6.88;;;5.10;;
40601;SDS011;26310;50.278;19.032;2022-07-30T04:56:56;5.35;;;4.43;;
40601;SDS011;26310;50.278;19.032;2022-07-30T05:01:59;6.85;;;4.53;;
40601;SDS011;26310;50.278;19.032;2022-07-30T05:07:03;5.05;;;4.50;;
40601;SDS011;26310;50.278;19.032;2022-07-30T05:12:07;6.57;;;5.05;;
40601;SDS011;26310;50.278;19.032;2022-07-30T05:17:09;4.93;;;4.20;;
40601;SDS011;26310;50.278;19.032;2022-07-30T05:22:12;5.30;;;3.92;;
40601;SDS011;26310;50.278;19.032;2022-07-30T05:27:15;5.15;;;3.90;;
40601;SDS011;26310;50.278;19.032;2022-07-30T05:32:18;5.85;;;4.20;;
40601;SDS011;26310;50.278;19.032;2022-07-30T05:37:22;5.78;;;3.55;;
40601;SDS011;26310;50.278;19.032;2022-07-30T05:42:25;5.55;;;4.13;;
40601;SDS011;26310;50.278;19.032;2022-07-30T05:47:28;4.85;;;3.53;;
40601;SDS011;26310;50.278;19.032;2022-07-30T05:52:31;6.22;;;3.80;;
40601;SDS011;26310;50.278;19.032;2022-07-30T05:57:34;5.57;;;3.65;;
40601;SDS011;26310;50.278;19.032;2022-07-30T06:02:37;4.97;;;3.97;;
40601;SDS011;26310;50.278;19.032;2022-07-30T06:07:41;5.07;;;4.53;;
40601;SDS011;26310;50.278;19.032;2022-07-30T06:12:44;4.88;;;4.30;;
40601;SDS011;26310;50.278;19.032;2022-07-30T06:17:46;5.30;;;3.67;;
40601;SDS011;26310;50.278;19.032;2022-07-30T06:23:02;5.43;;;3.78;;
40601;SDS011;26310;50.278;19.032;2022-07-30T06:28:04;4.97;;;3.97;;
40601;SDS011;26310;50.278;19.032;2022-07-30T06:33:27;6.07;;;4.35;;
40601;SDS011;26310;50.278;19.032;2022-07-30T06:38:30;5.35;;;3.58;;
40601;SDS011;26310;50.278;19.032;2022-07-30T06:43:33;4.50;;;4.00;;
40601;SDS011;26310;50.278;19.032;2022-07-30T06:48:36;5.22;;;3.90;;
40601;SDS011;26310;50.278;19.032;2022-07-30T06:53:39;7.13;;;4.55;;
40601;SDS011;26310;50.278;19.032;2022-07-30T06:58:43;4.22;;;3.83;;
40601;SDS011;26310;50.278;19.032;2022-07-30T07:03:46;7.05;;;4.07;;
40601;SDS011;26310;50.278;19.032;2022-07-30T07:08:48;7.40;;;4.70;;
40601;SDS011;26310;50.278;19.032;2022-07-30T07:13:51;5.25;;;4.20;;
40601;SDS011;26310;50.278;19.032;2022-07-30T07:18:54;4.32;;;3.70;;
40601;SDS011;26310;50.278;19.032;2022-07-30T07:23:57;6.88;;;4.63;;
40601;SDS011;26310;50.278;19.032;2022-07-30T07:29:01;6.43;;;4.30;;
40601;SDS011;26310;50.278;19.032;2022-07-30T07:34:05;5.80;;;4.00;;
40601;SDS011;26310;50.278;19.032;2022-07-30T07:39:08;7.82;;;4.70;;
40601;SDS011;26310;50.278;19.032;2022-07-30T07:44:15;5.13;;;4.07;;
40601;SDS011;26310;50.278;19.032;2022-07-30T07:49:18;5.57;;;3.72;;
40601;SDS011;26310;50.278;19.032;2022-07-30T07:54:21;6.00;;;3.53;;
40601;SDS011;26310;50.278;19.032;2022-07-30T07:59:24;5.60;;;4.10;;
40601;SDS011;26310;50.278;19.032;2022-07-30T08:04:40;4.60;;;3.85;;
40601;SDS011;26310;50.278;19.032;2022-07-30T08:09:43;4.90;;;3.83;;
40601;SDS011;26310;50.278;19.032;2022-07-30T08:14:46;5.28;;;4.05;;
40601;SDS011;26310;50.278;19.032;2022-07-30T08:19:49;5.22;;;3.38;;
40601;SDS011;26310;50.278;19.032;2022-07-30T08:24:52;4.57;;;3.70;;
40601;SDS011;26310;50.278;19.032;2022-07-30T08:29:55;4.90;;;3.67;;
40601;SDS011;26310;50.278;19.032;2022-07-30T08:34:59;3.75;;;3.35;;
40601;SDS011;26310;50.278;19.032;2022-07-30T08:40:03;5.30;;;3.60;;
40601;SDS011;26310;50.278;19.032;2022-07-30T08:45:06;4.45;;;3.60;;
40601;SDS011;26310;50.278;19.032;2022-07-30T08:50:10;3.90;;;3.08;;
40601;SDS011;26310;50.278;19.032;2022-07-30T08:55:17;3.25;;;2.95;;
40601;SDS011;26310;50.278;19.032;2022-07-30T09:00:22;2.63;;;2.35;;
40601;SDS011;26310;50.278;19.032;2022-07-30T09:05:25;2.25;;;2.05;;
40601;SDS011;26310;50.278;19.032;2022-07-30T09:10:28;2.83;;;2.53;;
40601;SDS011;26310;50.278;19.032;2022-07-30T09:15:30;3.20;;;2.60;;
40601;SDS011;26310;50.278;19.032;2022-07-30T09:20:34;2.47;;;2.28;;
40601;SDS011;26310;50.278;19.032;2022-07-30T09:25:41;3.97;;;3.33;;
40601;SDS011;26310;50.278;19.032;2022-07-30T09:30:48;2.20;;;1.80;;
40601;SDS011;26310;50.278;19.032;2022-07-30T09:35:54;5.13;;;3.67;;
40601;SDS011;26310;50.278;19.032;2022-07-30T09:40:57;2.95;;;2.00;;
40601;SDS011;26310;50.278;19.032;2022-07-30T09:46:13;2.17;;;1.85;;
40601;SDS011;26310;50.278;19.032;2022-07-30T09:51:16;2.38;;;2.17;;
40601;SDS011;26310;50.278;19.032;2022-07-30T09:56:38;2.45;;;2.00;;
40601;SDS011;26310;50.278;19.032;2022-07-30T10:01:54;4.05;;;3.60;;
40601;SDS011;26310;50.278;19.032;2022-07-30T10:07:02;3.80;;;3.33;;
40601;SDS011;26310;50.278;19.032;2022-07-30T10:12:07;3.35;;;3.05;;
40601;SDS011;26310;50.278;19.032;2022-07-30T10:17:12;3.90;;;3.50;;
40601;SDS011;26310;50.278;19.032;2022-07-30T10:22:18;4.30;;;3.80;;
40601;SDS011;26310;50.278;19.032;2022-07-30T10:27:22;3.80;;;3.20;;
40601;SDS011;26310;50.278;19.032;2022-07-30T10:32:25;2.92;;;2.55;;
40601;SDS011;26310;50.278;19.032;2022-07-30T10:37:31;3.33;;;2.85;;
40601;SDS011;26310;50.278;19.032;2022-07-30T10:48:05;3.92;;;3.53;;
40601;SDS011;26310;50.278;19.032;2022-07-30T10:53:08;5.13;;;3.80;;
40601;SDS011;26310;50.278;19.032;2022-07-30T10:58:12;4.05;;;3.65;;
40601;SDS011;26310;50.278;19.032;2022-07-30T11:03:27;5.65;;;4.53;;
40601;SDS011;26310;50.278;19.032;2022-07-30T11:08:45;5.43;;;4.47;;
40601;SDS011;26310;50.278;19.032;2022-07-30T11:13:53;5.63;;;4.70;;
40601;SDS011;26310;50.278;19.032;2022-07-30T11:19:10;5.90;;;4.80;;
40601;SDS011;26310;50.278;19.032;2022-07-30T11:24:44;5.30;;;4.80;;
40601;SDS011;26310;50.278;19.032;2022-07-30T11:29:49;6.50;;;4.95;;
40601;SDS011;26310;50.278;19.032;2022-07-30T11:35:09;9.60;;;6.70;;
40601;SDS011;26310;50.278;19.032;2022-07-30T11:40:15;11.32;;;7.75;;
40601;SDS011;26310;50.278;19.032;2022-07-30T11:45:27;9.85;;;7.82;;
40601;SDS011;26310;50.278;19.032;2022-07-30T11:50:31;11.90;;;8.25;;
40601;SDS011;26310;50.278;19.032;2022-07-30T11:55:36;14.00;;;9.60;;
40601;SDS011;26310;50.278;19.032;2022-07-30T12:00:41;15.25;;;9.52;;
40601;SDS011;26310;50.278;19.032;2022-07-30T12:05:48;23.38;;;11.75;;
40601;SDS011;26310;50.278;19.032;2022-07-30T12:10:55;15.18;;;10.55;;
40601;SDS011;26310;50.278;19.032;2022-07-30T12:15:59;17.38;;;11.93;;
40601;SDS011;26310;50.278;19.032;2022-07-30T12:21:03;16.63;;;11.20;;
40601;SDS011;26310;50.278;19.032;2022-07-30T12:26:18;15.63;;;11.20;;
40601;SDS011;26310;50.278;19.032;2022-07-30T12:31:23;15.43;;;11.65;;
40601;SDS011;26310;50.278;19.032;2022-07-30T12:36:29;17.30;;;12.10;;
40601;SDS011;26310;50.278;19.032;2022-07-30T12:41:40;17.08;;;13.05;;
40601;SDS011;26310;50.278;19.032;2022-07-30T12:46:47;15.95;;;13.68;;
40601;SDS011;26310;50.278;19.032;2022-07-30T12:51:51;18.70;;;14.73;;
40601;SDS011;26310;50.278;19.032;2022-07-30T12:57:02;17.20;;;14.15;;
40601;SDS011;26310;50.278;19.032;2022-07-30T13:02:06;17.60;;;14.40;;
40601;SDS011;26310;50.278;19.032;2022-07-30T13:07:10;19.17;;;14.80;;
40601;SDS011;26310;50.278;19.032;2022-07-30T13:12:13;21.55;;;15.27;;
40601;SDS011;26310;50.278;19.032;2022-07-30T13:17:16;25.60;;;16.17;;
40601;SDS011;26310;50.278;19.032;2022-07-30T13:22:19;19.35;;;15.82;;
40601;SDS011;26310;50.278;19.032;2022-07-30T13:27:22;22.90;;;16.70;;
40601;SDS011;26310;50.278;19.032;2022-07-30T13:32:25;22.88;;;16.30;;
40601;SDS011;26310;50.278;19.032;2022-07-30T13:37:28;26.50;;;18.80;;
40601;SDS011;26310;50.278;19.032;2022-07-30T13:42:39;21.55;;;17.27;;
40601;SDS011;26310;50.278;19.032;2022-07-30T13:47:42;23.80;;;17.65;;
40601;SDS011;26310;50.278;19.032;2022-07-30T13:52:44;17.42;;;14.32;;
40601;SDS011;26310;50.278;19.032;2022-07-30T13:57:47;20.88;;;15.02;;
40601;SDS011;26310;50.278;19.032;2022-07-30T14:02:50;22.20;;;15.93;;
40601;SDS011;26310;50.278;19.032;2022-07-30T14:07:53;19.92;;;16.23;;
40601;SDS011;26310;50.278;19.032;2022-07-30T14:12:56;19.08;;;15.02;;
40601;SDS011;26310;50.278;19.032;2022-07-30T14:18:00;21.20;;;15.95;;
40601;SDS011;26310;50.278;19.032;2022-07-30T14:23:03;22.65;;;16.27;;
40601;SDS011;26310;50.278;19.032;2022-07-30T14:28:06;21.90;;;17.15;;
40601;SDS011;26310;50.278;19.032;2022-07-30T14:33:09;24.08;;;16.95;;
40601;SDS011;26310;50.278;19.032;2022-07-30T14:38:12;24.05;;;16.67;;
40601;SDS011;26310;50.278;19.032;2022-07-30T14:43:14;22.80;;;16.50;;
40601;SDS011;26310;50.278;19.032;2022-07-30T14:48:19;23.50;;;17.33;;
40601;SDS011;26310;50.278;19.032;2022-07-30T14:53:22;24.35;;;16.73;;
40601;SDS011;26310;50.278;19.032;2022-07-30T14:58:25;22.13;;;15.57;;
40601;SDS011;26310;50.278;19.032;2022-07-30T15:03:28;21.02;;;15.60;;
40601;SDS011;26310;50.278;19.032;2022-07-30T15:08:31;20.77;;;16.08;;
40601;SDS011;26310;50.278;19.032;2022-07-30T15:13:34;24.73;;;17.15;;
40601;SDS011;26310;50.278;19.032;2022-07-30T15:18:39;26.40;;;17.00;;
40601;SDS011;26310;50.278;19.032;2022-07-30T15:23:42;21.45;;;16.23;;
40601;SDS011;26310;50.278;19.032;2022-07-30T15:28:44;20.27;;;15.40;;
40601;SDS011;26310;50.278;19.032;2022-07-30T15:33:47;22.92;;;17.27;;
40601;SDS011;26310;50.278;19.032;2022-07-30T15:38:50;21.88;;;16.58;;
40601;SDS011;26310;50.278;19.032;2022-07-30T15:43:53;20.38;;;16.20;;
40601;SDS011;26310;50.278;19.032;2022-07-30T15:48:59;20.60;;;15.15;;
40601;SDS011;26310;50.278;19.032;2022-07-30T15:54:03;20.27;;;15.90;;
40601;SDS011;26310;50.278;19.032;2022-07-30T15:59:08;24.58;;;18.10;;
40601;SDS011;26310;50.278;19.032;2022-07-30T16:04:11;39.50;;;27.00;;
40601;SDS011;26310;50.278;19.032;2022-07-30T16:09:20;35.92;;;25.08;;
40601;SDS011;26310;50.278;19.032;2022-07-30T16:14:24;36.00;;;22.83;;
40601;SDS011;26310;50.278;19.032;2022-07-30T16:19:27;30.23;;;22.33;;
40601;SDS011;26310;50.278;19.032;2022-07-30T16:24:30;31.55;;;23.48;;
40601;SDS011;26310;50.278;19.032;2022-07-30T16:29:33;27.90;;;20.80;;
40601;SDS011;26310;50.278;19.032;2022-07-30T16:34:36;26.35;;;20.05;;
40601;SDS011;26310;50.278;19.032;2022-07-30T16:39:39;26.63;;;18.95;;
40601;SDS011;26310;50.278;19.032;2022-07-30T16:44:42;26.33;;;18.83;;
40601;SDS011;26310;50.278;19.032;2022-07-30T16:49:45;23.07;;;17.60;;
40601;SDS011;26310;50.278;19.032;2022-07-30T16:54:48;25.95;;;18.73;;
40601;SDS011;26310;50.278;19.032;2022-07-30T16:59:51;23.77;;;18.25;;
40601;SDS011;26310;50.278;19.032;2022-07-30T17:04:54;21.73;;;16.40;;
40601;SDS011;26310;50.278;19.032;2022-07-30T17:09:56;22.37;;;15.30;;
40601;SDS011;26310;50.278;19.032;2022-07-30T17:14:59;19.03;;;14.97;;
40601;SDS011;26310;50.278;19.032;2022-07-30T17:20:03;17.83;;;13.60;;
40601;SDS011;26310;50.278;19.032;2022-07-30T17:25:07;15.33;;;12.23;;
40601;SDS011;26310;50.278;19.032;2022-07-30T17:30:10;13.87;;;11.57;;
40601;SDS011;26310;50.278;19.032;2022-07-30T17:35:13;12.07;;;10.10;;
40601;SDS011;26310;50.278;19.032;2022-07-30T17:40:16;11.60;;;9.47;;
40601;SDS011;26310;50.278;19.032;2022-07-30T17:45:35;12.40;;;9.87;;
40601;SDS011;26310;50.278;19.032;2022-07-30T17:50:37;12.60;;;10.27;;
40601;SDS011;26310;50.278;19.032;2022-07-30T17:55:40;13.00;;;10.33;;
40601;SDS011;26310;50.278;19.032;2022-07-30T18:00:58;12.87;;;10.10;;
40601;SDS011;26310;50.278;19.032;2022-07-30T18:06:03;11.57;;;8.93;;
40601;SDS011;26310;50.278;19.032;2022-07-30T18:11:06;10.57;;;8.50;;
40601;SDS011;26310;50.278;19.032;2022-07-30T18:16:14;9.70;;;7.80;;
40601;SDS011;26310;50.278;19.032;2022-07-30T18:21:17;9.87;;;7.63;;
40601;SDS011;26310;50.278;19.032;2022-07-30T18:26:19;8.00;;;6.27;;
40601;SDS011;26310;50.278;19.032;2022-07-30T18:31:22;10.10;;;6.40;;
40601;SDS011;26310;50.278;19.032;2022-07-30T18:36:25;10.60;;;7.60;;
40601;SDS011;26310;50.278;19.032;2022-07-30T18:41:28;7.53;;;6.27;;
40601;SDS011;26310;50.278;19.032;2022-07-30T18:46:31;6.67;;;5.93;;
40601;SDS011;26310;50.278;19.032;2022-07-30T18:51:33;8.20;;;6.77;;
40601;SDS011;26310;50.278;19.032;2022-07-30T18:56:37;12.03;;;6.93;;
40601;SDS011;26310;50.278;19.032;2022-07-30T19:01:39;8.07;;;6.13;;
40601;SDS011;26310;50.278;19.032;2022-07-30T19:06:44;8.40;;;5.93;;
40601;SDS011;26310;50.278;19.032;2022-07-30T19:11:54;7.07;;;5.70;;
40601;SDS011;26310;50.278;19.032;2022-07-30T19:16:58;7.03;;;6.03;;
40601;SDS011;26310;50.278;19.032;2022-07-30T19:22:03;6.50;;;5.60;;
40601;SDS011;26310;50.278;19.032;2022-07-30T19:27:06;7.67;;;6.17;;
40601;SDS011;26310;50.278;19.032;2022-07-30T19:32:15;11.07;;;8.03;;
40601;SDS011;26310;50.278;19.032;2022-07-30T19:37:18;13.00;;;8.73;;
40601;SDS011;26310;50.278;19.032;2022-07-30T19:42:24;15.50;;;9.63;;
40601;SDS011;26310;50.278;19.032;2022-07-30T19:47:31;20.90;;;11.57;;
40601;SDS011;26310;50.278;19.032;2022-07-30T19:52:40;14.33;;;9.70;;
40601;SDS011;26310;50.278;19.032;2022-07-30T19:57:52;18.27;;;10.93;;
40601;SDS011;26310;50.278;19.032;2022-07-30T20:02:55;18.10;;;10.90;;
40601;SDS011;26310;50.278;19.032;2022-07-30T20:07:58;22.47;;;13.03;;
40601;SDS011;26310;50.278;19.032;2022-07-30T20:13:02;21.03;;;12.50;;
40601;SDS011;26310;50.278;19.032;2022-07-30T20:18:07;19.87;;;12.03;;
40601;SDS011;26310;50.278;19.032;2022-07-30T20:23:10;23.47;;;12.93;;
40601;SDS011;26310;50.278;19.032;2022-07-30T20:28:13;20.33;;;12.23;;
40601;SDS011;26310;50.278;19.032;2022-07-30T20:33:19;22.70;;;13.40;;
40601;SDS011;26310;50.278;19.032;2022-07-30T20:38:41;25.47;;;14.83;;
40601;SDS011;26310;50.278;19.032;2022-07-30T20:43:47;27.60;;;15.43;;
40601;SDS011;26310;50.278;19.032;2022-07-30T20:48:55;27.17;;;15.20;;
40601;SDS011;26310;50.278;19.032;2022-07-30T20:53:58;26.33;;;15.73;;
40601;SDS011;26310;50.278;19.032;2022-07-30T20:59:02;24.83;;;15.00;;
40601;SDS011;26310;50.278;19.032;2022-07-30T21:04:06;24.67;;;13.97;;
40601;SDS011;26310;50.278;19.032;2022-07-30T21:09:24;18.60;;;12.43;;
40601;SDS011;26310;50.278;19.032;2022-07-30T21:14:49;22.10;;;12.53;;
40601;SDS011;26310;50.278;19.032;2022-07-30T21:19:53;18.50;;;12.10;;
40601;SDS011;26310;50.278;19.032;2022-07-30T21:24:56;20.13;;;11.63;;
40601;SDS011;26310;50.278;19.032;2022-07-30T21:30:00;18.53;;;10.17;;
40601;SDS011;26310;50.278;19.032;2022-07-30T21:35:03;16.27;;;10.67;;
40601;SDS011;26310;50.278;19.032;2022-07-30T21:40:10;18.10;;;10.47;;
40601;SDS011;26310;50.278;19.032;2022-07-30T21:45:15;20.40;;;12.13;;
40601;SDS011;26310;50.278;19.032;2022-07-30T21:50:18;24.03;;;12.83;;
40601;SDS011;26310;50.278;19.032;2022-07-30T21:55:21;27.73;;;14.37;;
40601;SDS011;26310;50.278;19.032;2022-07-30T22:00:59;31.87;;;15.00;;
40601;SDS011;26310;50.278;19.032;2022-07-30T22:05:55;28.70;;;15.13;;
40601;SDS011;26310;50.278;19.032;2022-07-30T22:10:58;28.63;;;13.93;;
40601;SDS011;26310;50.278;19.032;2022-07-30T22:16:01;27.37;;;14.63;;
40601;SDS011;26310;50.278;19.032;2022-07-30T22:21:04;29.20;;;14.00;;
40601;SDS011;26310;50.278;19.032;2022-07-30T22:26:07;25.67;;;13.73;;
40601;SDS011;26310;50.278;19.032;2022-07-30T22:31:10;25.80;;;13.57;;
40601;SDS011;26310;50.278;19.032;2022-07-30T22:36:16;23.80;;;12.77;;
40601;SDS011;26310;50.278;19.032;2022-07-30T22:41:25;19.30;;;11.73;;
40601;SDS011;26310;50.278;19.032;2022-07-30T22:46:29;21.90;;;12.30;;
40601;SDS011;26310;50.278;19.032;2022-07-30T22:51:32;20.57;;;11.57;;
40601;SDS011;26310;50.278;19.032;2022-07-30T22:56:55;16.50;;;10.37;;
40601;SDS011;26310;50.278;19.032;2022-07-30T23:02:04;16.90;;;11.23;;
40601;SDS011;26310;50.278;19.032;2022-07-30T23:07:13;19.53;;;11.43;;
40601;SDS011;26310;50.278;19.032;2022-07-30T23:12:19;18.93;;;10.87;;
40601;SDS011;26310;50.278;19.032;2022-07-30T23:17:22;16.03;;;9.43;;
40601;SDS011;26310;50.278;19.032;2022-07-30T23:22:25;15.23;;;8.20;;
40601;SDS011;26310;50.278;19.032;2022-07-30T23:27:28;17.80;;;9.90;;
40601;SDS011;26310;50.278;19.032;2022-07-30T23:32:31;13.97;;;8.23;;
40601;SDS011;26310;50.278;19.032;2022-07-30T23:37:37;14.00;;;8.07;;
40601;SDS011;26310;50.278;19.032;2022-07-30T23:42:49;13.53;;;8.33;;
40601;SDS011;26310;50.278;19.032;2022-07-30T23:47:53;11.87;;;8.13;;
40601;SDS011;26310;50.278;19.032;2022-07-30T23:53:03;10.53;;;7.70;;
40601;SDS011;26310;50.278;19.032;2022-07-30T23:58:06;13.83;;;7.83;;
